Brooks AFB, Texas
Current Conditions -  °F | °C
As of 10:53 PM on Sunday 19 Oct 2014 (Local Time) from KSSF Reporting Station
Broken Clouds Broken Clouds  
Wind Chill: 74°   Ceiling: 4700
Heat Index: 74°   Visibility: 10mi
Dew Point: 60°   Wind: 5mph
Humidity: 62%   Direction: 100°E
Pressure: 30.02"   Gusts: NA
Location:  29.3423°N, 98.4394°W
Report Text: KSSF 200353Z AUTO 10004KT 10SM BKN047 BKN055 23/16 A3002 RMK AO2 SLP156 T02330156 $
Loading
Personal Weather Stations






























Interactive Weather Map
Tropical Storm Tracking
New forecast layout! Learn more

10-Day Weather Forecast

Advertisements
Track Severe Weather on mobile